sensor_id;sensor_type;location;lat;lon;timestamp;P1;durP1;ratioP1;P2;durP2;ratioP2
11269;SDS011;5692;48.956;9.200;2023-05-07T00:00:26;183.77;;;174.98;;
11269;SDS011;5692;48.956;9.200;2023-05-07T00:02:52;193.57;;;184.30;;
11269;SDS011;5692;48.956;9.200;2023-05-07T00:05:21;180.32;;;171.73;;
11269;SDS011;5692;48.956;9.200;2023-05-07T00:07:47;202.90;;;193.20;;
11269;SDS011;5692;48.956;9.200;2023-05-07T00:10:13;188.07;;;179.07;;
11269;SDS011;5692;48.956;9.200;2023-05-07T00:15:05;198.07;;;188.57;;
11269;SDS011;5692;48.956;9.200;2023-05-07T00:17:32;203.82;;;194.07;;
11269;SDS011;5692;48.956;9.200;2023-05-07T00:19:58;193.65;;;184.35;;
11269;SDS011;5692;48.956;9.200;2023-05-07T00:22:24;216.48;;;206.13;;
11269;SDS011;5692;48.956;9.200;2023-05-07T00:24:51;197.82;;;188.32;;
11269;SDS011;5692;48.956;9.200;2023-05-07T00:27:17;195.90;;;186.50;;
11269;SDS011;5692;48.956;9.200;2023-05-07T00:29:43;204.18;;;194.40;;
11269;SDS011;5692;48.956;9.200;2023-05-07T00:32:09;195.75;;;186.38;;
11269;SDS011;5692;48.956;9.200;2023-05-07T00:34:35;184.80;;;175.95;;
11269;SDS011;5692;48.956;9.200;2023-05-07T00:37:01;187.00;;;178.05;;
11269;SDS011;5692;48.956;9.200;2023-05-07T00:39:27;179.85;;;171.25;;
11269;SDS011;5692;48.956;9.200;2023-05-07T00:41:53;172.65;;;164.35;;
11269;SDS011;5692;48.956;9.200;2023-05-07T00:44:19;186.35;;;177.43;;
11269;SDS011;5692;48.956;9.200;2023-05-07T00:46:47;189.10;;;180.05;;
11269;SDS011;5692;48.956;9.200;2023-05-07T00:49:14;179.00;;;170.40;;
11269;SDS011;5692;48.956;9.200;2023-05-07T00:51:41;186.65;;;177.70;;
11269;SDS011;5692;48.956;9.200;2023-05-07T00:54:07;192.02;;;182.82;;
11269;SDS011;5692;48.956;9.200;2023-05-07T00:56:34;186.63;;;177.68;;
11269;SDS011;5692;48.956;9.200;2023-05-07T00:59:01;191.07;;;181.93;;
11269;SDS011;5692;48.956;9.200;2023-05-07T01:01:27;189.38;;;180.30;;
11269;SDS011;5692;48.956;9.200;2023-05-07T01:03:53;180.65;;;172.00;;
11269;SDS011;5692;48.956;9.200;2023-05-07T01:06:20;195.40;;;186.05;;
11269;SDS011;5692;48.956;9.200;2023-05-07T01:08:47;183.65;;;174.85;;
11269;SDS011;5692;48.956;9.200;2023-05-07T01:11:13;188.93;;;179.90;;
11269;SDS011;5692;48.956;9.200;2023-05-07T01:13:39;194.18;;;184.88;;
11269;SDS011;5692;48.956;9.200;2023-05-07T01:16:06;187.02;;;178.07;;
11269;SDS011;5692;48.956;9.200;2023-05-07T01:18:32;184.38;;;175.57;;
11269;SDS011;5692;48.956;9.200;2023-05-07T01:20:58;192.25;;;183.05;;
11269;SDS011;5692;48.956;9.200;2023-05-07T01:23:25;185.25;;;176.35;;
11269;SDS011;5692;48.956;9.200;2023-05-07T01:25:53;179.00;;;170.40;;
11269;SDS011;5692;48.956;9.200;2023-05-07T01:28:19;184.00;;;175.20;;
11269;SDS011;5692;48.956;9.200;2023-05-07T01:30:46;187.05;;;178.07;;
11269;SDS011;5692;48.956;9.200;2023-05-07T01:33:14;190.85;;;181.73;;
11269;SDS011;5692;48.956;9.200;2023-05-07T01:35:41;181.60;;;172.90;;
11269;SDS011;5692;48.956;9.200;2023-05-07T01:38:09;180.70;;;172.05;;
11269;SDS011;5692;48.956;9.200;2023-05-07T01:40:35;178.80;;;170.23;;
11269;SDS011;5692;48.956;9.200;2023-05-07T01:43:02;189.50;;;180.40;;
11269;SDS011;5692;48.956;9.200;2023-05-07T01:45:29;191.55;;;182.35;;
11269;SDS011;5692;48.956;9.200;2023-05-07T01:47:55;184.10;;;175.27;;
11269;SDS011;5692;48.956;9.200;2023-05-07T01:50:22;193.20;;;183.95;;
11269;SDS011;5692;48.956;9.200;2023-05-07T01:52:50;175.65;;;167.25;;
11269;SDS011;5692;48.956;9.200;2023-05-07T01:55:16;188.57;;;179.55;;
11269;SDS011;5692;48.956;9.200;2023-05-07T01:57:42;184.10;;;175.27;;
11269;SDS011;5692;48.956;9.200;2023-05-07T02:00:08;182.48;;;173.73;;
11269;SDS011;5692;48.956;9.200;2023-05-07T02:02:34;193.40;;;184.15;;
11269;SDS011;5692;48.956;9.200;2023-05-07T02:05:01;186.73;;;177.77;;
11269;SDS011;5692;48.956;9.200;2023-05-07T02:07:27;185.18;;;176.30;;
11269;SDS011;5692;48.956;9.200;2023-05-07T02:09:53;187.70;;;178.70;;
11269;SDS011;5692;48.956;9.200;2023-05-07T02:12:20;185.88;;;176.98;;
11269;SDS011;5692;48.956;9.200;2023-05-07T02:14:46;186.23;;;177.32;;
11269;SDS011;5692;48.956;9.200;2023-05-07T02:17:12;195.75;;;186.38;;
11269;SDS011;5692;48.956;9.200;2023-05-07T02:19:38;181.30;;;172.60;;
11269;SDS011;5692;48.956;9.200;2023-05-07T02:22:04;199.05;;;189.52;;
11269;SDS011;5692;48.956;9.200;2023-05-07T02:24:30;203.43;;;193.70;;
11269;SDS011;5692;48.956;9.200;2023-05-07T02:26:56;207.75;;;197.82;;
11269;SDS011;5692;48.956;9.200;2023-05-07T02:29:25;199.38;;;189.85;;
11269;SDS011;5692;48.956;9.200;2023-05-07T02:31:51;198.02;;;188.55;;
11269;SDS011;5692;48.956;9.200;2023-05-07T02:34:18;190.05;;;180.95;;
11269;SDS011;5692;48.956;9.200;2023-05-07T02:36:44;187.30;;;178.30;;
11269;SDS011;5692;48.956;9.200;2023-05-07T02:39:12;180.50;;;171.85;;
11269;SDS011;5692;48.956;9.200;2023-05-07T02:41:38;185.98;;;177.07;;
11269;SDS011;5692;48.956;9.200;2023-05-07T02:44:04;201.73;;;192.05;;
11269;SDS011;5692;48.956;9.200;2023-05-07T02:46:30;190.68;;;181.52;;
11269;SDS011;5692;48.956;9.200;2023-05-07T02:48:56;199.40;;;189.85;;
11269;SDS011;5692;48.956;9.200;2023-05-07T02:51:22;195.93;;;186.52;;
11269;SDS011;5692;48.956;9.200;2023-05-07T02:53:52;199.68;;;190.13;;
11269;SDS011;5692;48.956;9.200;2023-05-07T02:56:18;196.35;;;186.95;;
11269;SDS011;5692;48.956;9.200;2023-05-07T02:58:44;180.20;;;171.57;;
11269;SDS011;5692;48.956;9.200;2023-05-07T03:01:10;184.15;;;175.32;;
11269;SDS011;5692;48.956;9.200;2023-05-07T03:03:39;181.82;;;173.13;;
11269;SDS011;5692;48.956;9.200;2023-05-07T03:06:05;181.45;;;172.75;;
11269;SDS011;5692;48.956;9.200;2023-05-07T03:08:31;193.35;;;184.05;;
11269;SDS011;5692;48.956;9.200;2023-05-07T03:10:58;178.20;;;169.68;;
11269;SDS011;5692;48.956;9.200;2023-05-07T03:13:24;183.02;;;174.23;;
11269;SDS011;5692;48.956;9.200;2023-05-07T03:15:50;158.90;;;151.30;;
11269;SDS011;5692;48.956;9.200;2023-05-07T03:18:16;176.13;;;167.70;;
11269;SDS011;5692;48.956;9.200;2023-05-07T03:20:42;182.35;;;173.63;;
11269;SDS011;5692;48.956;9.200;2023-05-07T03:23:08;171.95;;;163.73;;
11269;SDS011;5692;48.956;9.200;2023-05-07T03:25:36;178.20;;;169.68;;
11269;SDS011;5692;48.956;9.200;2023-05-07T03:28:02;170.27;;;162.10;;
11269;SDS011;5692;48.956;9.200;2023-05-07T03:30:28;162.13;;;154.35;;
11269;SDS011;5692;48.956;9.200;2023-05-07T03:32:54;173.48;;;165.18;;
11269;SDS011;5692;48.956;9.200;2023-05-07T03:35:21;167.55;;;159.55;;
11269;SDS011;5692;48.956;9.200;2023-05-07T03:37:50;175.68;;;167.25;;
11269;SDS011;5692;48.956;9.200;2023-05-07T03:40:16;173.27;;;164.98;;
11269;SDS011;5692;48.956;9.200;2023-05-07T03:42:42;168.48;;;160.38;;
11269;SDS011;5692;48.956;9.200;2023-05-07T03:45:11;166.23;;;158.25;;
11269;SDS011;5692;48.956;9.200;2023-05-07T03:47:37;168.50;;;160.43;;
11269;SDS011;5692;48.956;9.200;2023-05-07T03:50:03;178.35;;;169.80;;
11269;SDS011;5692;48.956;9.200;2023-05-07T03:52:31;169.13;;;161.02;;
11269;SDS011;5692;48.956;9.200;2023-05-07T03:54:57;166.43;;;158.43;;
11269;SDS011;5692;48.956;9.200;2023-05-07T03:57:23;169.45;;;161.35;;
11269;SDS011;5692;48.956;9.200;2023-05-07T03:59:49;171.43;;;163.23;;
11269;SDS011;5692;48.956;9.200;2023-05-07T04:02:15;164.65;;;156.75;;
11269;SDS011;5692;48.956;9.200;2023-05-07T04:04:44;161.18;;;153.48;;
11269;SDS011;5692;48.956;9.200;2023-05-07T04:07:10;177.95;;;169.45;;
11269;SDS011;5692;48.956;9.200;2023-05-07T04:09:36;173.30;;;165.00;;
11269;SDS011;5692;48.956;9.200;2023-05-07T04:12:02;172.23;;;163.98;;
11269;SDS011;5692;48.956;9.200;2023-05-07T04:14:31;167.65;;;159.65;;
11269;SDS011;5692;48.956;9.200;2023-05-07T04:16:58;171.98;;;163.75;;
11269;SDS011;5692;48.956;9.200;2023-05-07T04:19:24;160.82;;;153.13;;
11269;SDS011;5692;48.956;9.200;2023-05-07T04:21:50;176.20;;;167.75;;
11269;SDS011;5692;48.956;9.200;2023-05-07T04:24:16;174.32;;;165.98;;
11269;SDS011;5692;48.956;9.200;2023-05-07T04:26:42;159.98;;;152.30;;
11269;SDS011;5692;48.956;9.200;2023-05-07T04:29:09;171.82;;;163.63;;
11269;SDS011;5692;48.956;9.200;2023-05-07T04:31:35;175.77;;;167.35;;
11269;SDS011;5692;48.956;9.200;2023-05-07T04:34:01;167.38;;;159.35;;
11269;SDS011;5692;48.956;9.200;2023-05-07T04:36:27;176.18;;;167.73;;
11269;SDS011;5692;48.956;9.200;2023-05-07T04:38:54;175.07;;;166.68;;
11269;SDS011;5692;48.956;9.200;2023-05-07T04:41:20;175.13;;;166.73;;
11269;SDS011;5692;48.956;9.200;2023-05-07T04:43:46;178.70;;;170.15;;
11269;SDS011;5692;48.956;9.200;2023-05-07T04:46:12;165.02;;;157.13;;
11269;SDS011;5692;48.956;9.200;2023-05-07T04:48:39;170.98;;;162.77;;
11269;SDS011;5692;48.956;9.200;2023-05-07T04:51:05;163.80;;;155.95;;
11269;SDS011;5692;48.956;9.200;2023-05-07T04:53:31;164.88;;;156.98;;
11269;SDS011;5692;48.956;9.200;2023-05-07T04:55:57;161.10;;;153.40;;
11269;SDS011;5692;48.956;9.200;2023-05-07T04:58:23;163.20;;;155.40;;
11269;SDS011;5692;48.956;9.200;2023-05-07T05:00:49;168.73;;;160.63;;
11269;SDS011;5692;48.956;9.200;2023-05-07T05:03:18;167.90;;;159.85;;
11269;SDS011;5692;48.956;9.200;2023-05-07T05:05:44;170.63;;;162.43;;
11269;SDS011;5692;48.956;9.200;2023-05-07T05:08:10;169.25;;;161.13;;
11269;SDS011;5692;48.956;9.200;2023-05-07T05:10:36;167.35;;;159.35;;
11269;SDS011;5692;48.956;9.200;2023-05-07T05:13:02;160.20;;;152.50;;
11269;SDS011;5692;48.956;9.200;2023-05-07T05:15:28;174.02;;;165.70;;
11269;SDS011;5692;48.956;9.200;2023-05-07T05:17:55;170.75;;;162.57;;
11269;SDS011;5692;48.956;9.200;2023-05-07T05:20:21;168.55;;;160.48;;
11269;SDS011;5692;48.956;9.200;2023-05-07T05:22:49;174.43;;;166.05;;
11269;SDS011;5692;48.956;9.200;2023-05-07T05:25:18;166.02;;;158.07;;
11269;SDS011;5692;48.956;9.200;2023-05-07T05:27:44;184.95;;;176.10;;
11269;SDS011;5692;48.956;9.200;2023-05-07T05:30:10;178.65;;;170.07;;
11269;SDS011;5692;48.956;9.200;2023-05-07T05:32:36;172.18;;;163.93;;
11269;SDS011;5692;48.956;9.200;2023-05-07T05:35:02;175.80;;;167.38;;
11269;SDS011;5692;48.956;9.200;2023-05-07T05:37:28;183.38;;;174.57;;
11269;SDS011;5692;48.956;9.200;2023-05-07T05:39:56;175.25;;;166.85;;
11269;SDS011;5692;48.956;9.200;2023-05-07T05:42:22;181.80;;;173.10;;
11269;SDS011;5692;48.956;9.200;2023-05-07T05:44:48;168.07;;;160.02;;
11269;SDS011;5692;48.956;9.200;2023-05-07T05:47:14;167.35;;;159.32;;
11269;SDS011;5692;48.956;9.200;2023-05-07T05:49:43;168.13;;;160.07;;
11269;SDS011;5692;48.956;9.200;2023-05-07T05:52:09;167.70;;;159.70;;
11269;SDS011;5692;48.956;9.200;2023-05-07T05:54:35;170.38;;;162.18;;
11269;SDS011;5692;48.956;9.200;2023-05-07T05:57:01;168.10;;;160.05;;
11269;SDS011;5692;48.956;9.200;2023-05-07T05:59:29;171.85;;;163.65;;
11269;SDS011;5692;48.956;9.200;2023-05-07T06:01:55;173.82;;;165.52;;
11269;SDS011;5692;48.956;9.200;2023-05-07T06:04:21;182.18;;;173.45;;
11269;SDS011;5692;48.956;9.200;2023-05-07T06:06:50;177.23;;;168.75;;
11269;SDS011;5692;48.956;9.200;2023-05-07T06:09:16;171.27;;;163.07;;
11269;SDS011;5692;48.956;9.200;2023-05-07T06:11:42;179.03;;;170.43;;
11269;SDS011;5692;48.956;9.200;2023-05-07T06:14:08;182.07;;;173.35;;
11269;SDS011;5692;48.956;9.200;2023-05-07T06:16:34;180.38;;;171.75;;
11269;SDS011;5692;48.956;9.200;2023-05-07T06:19:02;172.57;;;164.30;;
11269;SDS011;5692;48.956;9.200;2023-05-07T06:21:28;161.70;;;153.95;;
11269;SDS011;5692;48.956;9.200;2023-05-07T06:23:55;179.38;;;170.77;;
11269;SDS011;5692;48.956;9.200;2023-05-07T06:26:21;186.15;;;177.25;;
11269;SDS011;5692;48.956;9.200;2023-05-07T06:28:47;188.55;;;179.55;;
11269;SDS011;5692;48.956;9.200;2023-05-07T06:31:17;193.35;;;184.05;;
11269;SDS011;5692;48.956;9.200;2023-05-07T06:33:45;197.20;;;187.75;;
11269;SDS011;5692;48.956;9.200;2023-05-07T06:36:11;186.02;;;177.13;;
11269;SDS011;5692;48.956;9.200;2023-05-07T06:38:39;200.75;;;191.15;;
11269;SDS011;5692;48.956;9.200;2023-05-07T06:41:06;206.93;;;197.02;;
11269;SDS011;5692;48.956;9.200;2023-05-07T06:43:32;209.30;;;199.30;;
11269;SDS011;5692;48.956;9.200;2023-05-07T06:45:58;205.57;;;195.73;;
11269;SDS011;5692;48.956;9.200;2023-05-07T06:48:24;201.50;;;191.85;;
11269;SDS011;5692;48.956;9.200;2023-05-07T06:50:52;202.05;;;192.35;;
11269;SDS011;5692;48.956;9.200;2023-05-07T06:53:20;188.88;;;179.82;;
11269;SDS011;5692;48.956;9.200;2023-05-07T06:55:49;197.25;;;187.80;;
11269;SDS011;5692;48.956;9.200;2023-05-07T06:58:17;207.10;;;197.20;;
11269;SDS011;5692;48.956;9.200;2023-05-07T07:00:43;204.02;;;194.27;;
11269;SDS011;5692;48.956;9.200;2023-05-07T07:03:09;199.13;;;189.60;;
11269;SDS011;5692;48.956;9.200;2023-05-07T07:05:35;204.70;;;194.90;;
11269;SDS011;5692;48.956;9.200;2023-05-07T07:08:01;195.02;;;185.68;;
11269;SDS011;5692;48.956;9.200;2023-05-07T07:10:30;203.43;;;193.73;;
11269;SDS011;5692;48.956;9.200;2023-05-07T07:12:56;211.40;;;201.30;;
11269;SDS011;5692;48.956;9.200;2023-05-07T07:15:22;228.05;;;217.15;;
11269;SDS011;5692;48.956;9.200;2023-05-07T07:17:49;215.07;;;204.77;;
11269;SDS011;5692;48.956;9.200;2023-05-07T07:20:15;229.30;;;218.33;;
11269;SDS011;5692;48.956;9.200;2023-05-07T07:22:44;210.40;;;200.32;;
11269;SDS011;5692;48.956;9.200;2023-05-07T07:25:10;214.73;;;204.45;;
11269;SDS011;5692;48.956;9.200;2023-05-07T07:27:36;227.85;;;216.95;;
11269;SDS011;5692;48.956;9.200;2023-05-07T07:30:05;234.10;;;222.90;;
11269;SDS011;5692;48.956;9.200;2023-05-07T07:32:31;221.88;;;211.27;;
11269;SDS011;5692;48.956;9.200;2023-05-07T07:34:58;225.88;;;215.07;;
11269;SDS011;5692;48.956;9.200;2023-05-07T07:37:27;217.07;;;206.68;;
11269;SDS011;5692;48.956;9.200;2023-05-07T07:39:53;217.48;;;207.07;;
11269;SDS011;5692;48.956;9.200;2023-05-07T07:42:22;237.73;;;226.35;;
11269;SDS011;5692;48.956;9.200;2023-05-07T07:44:48;213.35;;;203.15;;
11269;SDS011;5692;48.956;9.200;2023-05-07T07:47:14;246.30;;;234.50;;
11269;SDS011;5692;48.956;9.200;2023-05-07T07:49:40;229.30;;;218.33;;
11269;SDS011;5692;48.956;9.200;2023-05-07T07:52:06;252.20;;;240.13;;
11269;SDS011;5692;48.956;9.200;2023-05-07T07:54:32;249.50;;;237.60;;
11269;SDS011;5692;48.956;9.200;2023-05-07T07:56:58;233.27;;;222.13;;
11269;SDS011;5692;48.956;9.200;2023-05-07T07:59:24;234.68;;;223.48;;
11269;SDS011;5692;48.956;9.200;2023-05-07T08:01:51;220.57;;;210.02;;
11269;SDS011;5692;48.956;9.200;2023-05-07T08:04:20;220.38;;;209.85;;
11269;SDS011;5692;48.956;9.200;2023-05-07T08:06:46;225.38;;;214.57;;
11269;SDS011;5692;48.956;9.200;2023-05-07T08:09:12;227.57;;;216.67;;
11269;SDS011;5692;48.956;9.200;2023-05-07T08:11:39;217.40;;;207.00;;
11269;SDS011;5692;48.956;9.200;2023-05-07T08:14:05;222.43;;;211.80;;
11269;SDS011;5692;48.956;9.200;2023-05-07T08:16:31;229.60;;;218.60;;
11269;SDS011;5692;48.956;9.200;2023-05-07T08:18:57;224.93;;;214.18;;
11269;SDS011;5692;48.956;9.200;2023-05-07T08:21:23;217.50;;;207.10;;
11269;SDS011;5692;48.956;9.200;2023-05-07T08:23:49;228.73;;;217.77;;
11269;SDS011;5692;48.956;9.200;2023-05-07T08:26:15;222.18;;;211.57;;
11269;SDS011;5692;48.956;9.200;2023-05-07T08:28:41;226.00;;;215.20;;
11269;SDS011;5692;48.956;9.200;2023-05-07T08:31:07;224.80;;;214.05;;
11269;SDS011;5692;48.956;9.200;2023-05-07T08:33:33;233.10;;;221.97;;
11269;SDS011;5692;48.956;9.200;2023-05-07T08:35:59;223.70;;;213.00;;
11269;SDS011;5692;48.956;9.200;2023-05-07T08:38:25;226.98;;;216.13;;
11269;SDS011;5692;48.956;9.200;2023-05-07T08:40:51;224.93;;;214.15;;
11269;SDS011;5692;48.956;9.200;2023-05-07T08:43:18;220.32;;;209.80;;
11269;SDS011;5692;48.956;9.200;2023-05-07T08:45:45;226.70;;;215.85;;
11269;SDS011;5692;48.956;9.200;2023-05-07T08:48:14;234.70;;;223.48;;
11269;SDS011;5692;48.956;9.200;2023-05-07T08:50:40;237.88;;;226.50;;
11269;SDS011;5692;48.956;9.200;2023-05-07T08:53:07;236.82;;;225.52;;
11269;SDS011;5692;48.956;9.200;2023-05-07T08:55:33;236.18;;;224.88;;
11269;SDS011;5692;48.956;9.200;2023-05-07T08:57:59;242.68;;;231.07;;
11269;SDS011;5692;48.956;9.200;2023-05-07T09:00:26;239.95;;;228.48;;
11269;SDS011;5692;48.956;9.200;2023-05-07T09:02:52;241.68;;;230.13;;
11269;SDS011;5692;48.956;9.200;2023-05-07T09:05:19;238.60;;;227.20;;
11269;SDS011;5692;48.956;9.200;2023-05-07T09:07:45;232.57;;;221.48;;
11269;SDS011;5692;48.956;9.200;2023-05-07T09:10:11;228.02;;;217.10;;
11269;SDS011;5692;48.956;9.200;2023-05-07T09:12:38;227.75;;;216.85;;
11269;SDS011;5692;48.956;9.200;2023-05-07T09:15:04;254.70;;;242.50;;
11269;SDS011;5692;48.956;9.200;2023-05-07T09:17:30;246.85;;;235.05;;
11269;SDS011;5692;48.956;9.200;2023-05-07T09:20:01;248.77;;;236.88;;
11269;SDS011;5692;48.956;9.200;2023-05-07T09:22:29;245.35;;;233.63;;
11269;SDS011;5692;48.956;9.200;2023-05-07T09:24:56;244.55;;;232.85;;
11269;SDS011;5692;48.956;9.200;2023-05-07T09:27:23;243.53;;;231.90;;
11269;SDS011;5692;48.956;9.200;2023-05-07T09:29:49;235.68;;;224.38;;
11269;SDS011;5692;48.956;9.200;2023-05-07T09:32:18;265.30;;;252.60;;
11269;SDS011;5692;48.956;9.200;2023-05-07T09:34:44;280.93;;;267.50;;
11269;SDS011;5692;48.956;9.200;2023-05-07T09:37:12;8.55;;;3.72;;
11269;SDS011;5692;48.956;9.200;2023-05-07T09:39:43;6.17;;;3.53;;
11269;SDS011;5692;48.956;9.200;2023-05-07T09:42:12;5.13;;;2.23;;
11269;SDS011;5692;48.956;9.200;2023-05-07T09:44:43;8.05;;;3.08;;
11269;SDS011;5692;48.956;9.200;2023-05-07T09:47:10;4.80;;;2.07;;
11269;SDS011;5692;48.956;9.200;2023-05-07T09:49:39;5.20;;;2.70;;
11269;SDS011;5692;48.956;9.200;2023-05-07T09:52:07;5.60;;;2.80;;
11269;SDS011;5692;48.956;9.200;2023-05-07T09:54:36;106.90;;;101.77;;
11269;SDS011;5692;48.956;9.200;2023-05-07T09:57:08;176.50;;;168.07;;
11269;SDS011;5692;48.956;9.200;2023-05-07T09:59:34;6.17;;;4.73;;
11269;SDS011;5692;48.956;9.200;2023-05-07T10:02:03;233.77;;;222.60;;
11269;SDS011;5692;48.956;9.200;2023-05-07T10:04:29;201.67;;;192.00;;
11269;SDS011;5692;48.956;9.200;2023-05-07T10:06:56;171.27;;;163.07;;
11269;SDS011;5692;48.956;9.200;2023-05-07T10:09:22;195.37;;;186.00;;
11269;SDS011;5692;48.956;9.200;2023-05-07T10:11:48;200.97;;;191.37;;
11269;SDS011;5692;48.956;9.200;2023-05-07T10:14:15;242.70;;;231.10;;
11269;SDS011;5692;48.956;9.200;2023-05-07T10:16:41;223.47;;;212.77;;
11269;SDS011;5692;48.956;9.200;2023-05-07T10:19:08;238.70;;;227.27;;
11269;SDS011;5692;48.956;9.200;2023-05-07T10:21:38;243.00;;;231.37;;
11269;SDS011;5692;48.956;9.200;2023-05-07T10:24:21;85.60;;;81.50;;
11269;SDS011;5692;48.956;9.200;2023-05-07T10:26:48;241.60;;;230.03;;
11269;SDS011;5692;48.956;9.200;2023-05-07T10:34:36;224.67;;;213.93;;
11269;SDS011;5692;48.956;9.200;2023-05-07T10:37:03;218.30;;;207.90;;
11269;SDS011;5692;48.956;9.200;2023-05-07T10:39:29;204.37;;;194.57;;
11269;SDS011;5692;48.956;9.200;2023-05-07T10:41:55;6.90;;;2.83;;
11269;SDS011;5692;48.956;9.200;2023-05-07T10:44:28;5.80;;;3.07;;
11269;SDS011;5692;48.956;9.200;2023-05-07T10:47:05;6.30;;;2.33;;
11269;SDS011;5692;48.956;9.200;2023-05-07T10:49:32;114.03;;;108.57;;
11269;SDS011;5692;48.956;9.200;2023-05-07T10:52:10;104.90;;;99.87;;
11269;SDS011;5692;48.956;9.200;2023-05-07T10:54:38;102.37;;;97.47;;
11269;SDS011;5692;48.956;9.200;2023-05-07T11:05:28;131.13;;;124.83;;
11269;SDS011;5692;48.956;9.200;2023-05-07T11:07:55;148.83;;;141.73;;
11269;SDS011;5692;48.956;9.200;2023-05-07T11:10:21;153.13;;;145.80;;
11269;SDS011;5692;48.956;9.200;2023-05-07T11:12:48;154.50;;;147.10;;
11269;SDS011;5692;48.956;9.200;2023-05-07T11:15:14;150.73;;;143.53;;
11269;SDS011;5692;48.956;9.200;2023-05-07T11:17:54;144.30;;;137.40;;
11269;SDS011;5692;48.956;9.200;2023-05-07T11:20:20;153.00;;;145.67;;
11269;SDS011;5692;48.956;9.200;2023-05-07T11:22:46;167.20;;;159.20;;
11269;SDS011;5692;48.956;9.200;2023-05-07T11:25:17;178.00;;;169.47;;
11269;SDS011;5692;48.956;9.200;2023-05-07T11:27:46;211.40;;;201.30;;
11269;SDS011;5692;48.956;9.200;2023-05-07T11:30:18;236.37;;;225.07;;
11269;SDS011;5692;48.956;9.200;2023-05-07T11:32:47;5.70;;;2.17;;
11269;SDS011;5692;48.956;9.200;2023-05-07T11:35:13;4.77;;;1.40;;
11269;SDS011;5692;48.956;9.200;2023-05-07T11:37:41;261.07;;;248.60;;
11269;SDS011;5692;48.956;9.200;2023-05-07T11:40:08;258.10;;;245.77;;
11269;SDS011;5692;48.956;9.200;2023-05-07T11:42:36;258.33;;;245.97;;
11269;SDS011;5692;48.956;9.200;2023-05-07T11:45:02;254.93;;;242.77;;
11269;SDS011;5692;48.956;9.200;2023-05-07T11:47:32;246.73;;;234.93;;
11269;SDS011;5692;48.956;9.200;2023-05-07T11:50:05;249.13;;;237.23;;
11269;SDS011;5692;48.956;9.200;2023-05-07T11:52:32;229.70;;;218.73;;
11269;SDS011;5692;48.956;9.200;2023-05-07T11:54:59;239.83;;;228.33;;
11269;SDS011;5692;48.956;9.200;2023-05-07T11:57:28;233.20;;;222.03;;
11269;SDS011;5692;48.956;9.200;2023-05-07T11:59:55;234.47;;;223.23;;
11269;SDS011;5692;48.956;9.200;2023-05-07T12:02:21;208.53;;;198.57;;
11269;SDS011;5692;48.956;9.200;2023-05-07T12:04:47;220.30;;;209.77;;
11269;SDS011;5692;48.956;9.200;2023-05-07T12:07:16;222.93;;;212.23;;
11269;SDS011;5692;48.956;9.200;2023-05-07T12:09:43;227.07;;;216.20;;
11269;SDS011;5692;48.956;9.200;2023-05-07T12:12:09;232.10;;;221.00;;
11269;SDS011;5692;48.956;9.200;2023-05-07T12:14:39;231.33;;;220.23;;
11269;SDS011;5692;48.956;9.200;2023-05-07T12:17:05;229.63;;;218.63;;
11269;SDS011;5692;48.956;9.200;2023-05-07T12:19:35;249.87;;;237.93;;
11269;SDS011;5692;48.956;9.200;2023-05-07T12:22:04;240.80;;;229.27;;
11269;SDS011;5692;48.956;9.200;2023-05-07T12:27:09;239.60;;;228.13;;
11269;SDS011;5692;48.956;9.200;2023-05-07T12:29:35;235.70;;;224.40;;
11269;SDS011;5692;48.956;9.200;2023-05-07T12:32:04;247.90;;;236.03;;
11269;SDS011;5692;48.956;9.200;2023-05-07T12:34:31;227.67;;;216.77;;
11269;SDS011;5692;48.956;9.200;2023-05-07T12:37:01;230.93;;;219.90;;
11269;SDS011;5692;48.956;9.200;2023-05-07T12:39:28;230.50;;;219.50;;
11269;SDS011;5692;48.956;9.200;2023-05-07T12:41:55;221.60;;;211.00;;
11269;SDS011;5692;48.956;9.200;2023-05-07T12:44:22;220.33;;;209.80;;
11269;SDS011;5692;48.956;9.200;2023-05-07T12:46:48;229.57;;;218.60;;
11269;SDS011;5692;48.956;9.200;2023-05-07T12:49:15;241.47;;;229.93;;
11269;SDS011;5692;48.956;9.200;2023-05-07T12:51:43;241.03;;;229.50;;
11269;SDS011;5692;48.956;9.200;2023-05-07T12:54:09;260.67;;;248.20;;
11269;SDS011;5692;48.956;9.200;2023-05-07T12:56:36;251.00;;;239.00;;
11269;SDS011;5692;48.956;9.200;2023-05-07T12:59:04;236.47;;;225.17;;
11269;SDS011;5692;48.956;9.200;2023-05-07T13:01:30;253.93;;;241.83;;
11269;SDS011;5692;48.956;9.200;2023-05-07T13:04:00;249.10;;;237.20;;
11269;SDS011;5692;48.956;9.200;2023-05-07T13:06:26;245.53;;;233.80;;
11269;SDS011;5692;48.956;9.200;2023-05-07T13:08:53;247.10;;;235.27;;
11269;SDS011;5692;48.956;9.200;2023-05-07T13:11:19;235.27;;;224.00;;
11269;SDS011;5692;48.956;9.200;2023-05-07T13:13:45;241.10;;;229.60;;
11269;SDS011;5692;48.956;9.200;2023-05-07T13:16:11;244.40;;;232.73;;
11269;SDS011;5692;48.956;9.200;2023-05-07T13:18:38;239.30;;;227.87;;
11269;SDS011;5692;48.956;9.200;2023-05-07T13:21:05;228.40;;;217.50;;
11269;SDS011;5692;48.956;9.200;2023-05-07T13:23:31;255.87;;;243.63;;
11269;SDS011;5692;48.956;9.200;2023-05-07T13:25:57;230.20;;;219.20;;
11269;SDS011;5692;48.956;9.200;2023-05-07T13:28:23;247.33;;;235.53;;
11269;SDS011;5692;48.956;9.200;2023-05-07T13:30:50;258.97;;;246.57;;
11269;SDS011;5692;48.956;9.200;2023-05-07T13:33:17;251.57;;;239.57;;
11269;SDS011;5692;48.956;9.200;2023-05-07T13:35:45;236.43;;;225.10;;
11269;SDS011;5692;48.956;9.200;2023-05-07T13:38:11;234.02;;;222.85;;
11269;SDS011;5692;48.956;9.200;2023-05-07T13:40:38;249.80;;;237.85;;
11269;SDS011;5692;48.956;9.200;2023-05-07T13:43:05;248.02;;;236.15;;
11269;SDS011;5692;48.956;9.200;2023-05-07T13:45:34;237.13;;;225.80;;
11269;SDS011;5692;48.956;9.200;2023-05-07T13:48:00;250.23;;;238.25;;
11269;SDS011;5692;48.956;9.200;2023-05-07T13:50:26;254.07;;;241.93;;
11269;SDS011;5692;48.956;9.200;2023-05-07T13:52:56;244.52;;;232.82;;
11269;SDS011;5692;48.956;9.200;2023-05-07T13:55:23;250.18;;;238.20;;
11269;SDS011;5692;48.956;9.200;2023-05-07T13:57:55;242.38;;;230.77;;
11269;SDS011;5692;48.956;9.200;2023-05-07T14:00:22;233.95;;;222.75;;
11269;SDS011;5692;48.956;9.200;2023-05-07T14:02:51;231.18;;;220.10;;
11269;SDS011;5692;48.956;9.200;2023-05-07T14:05:17;225.38;;;214.57;;
11269;SDS011;5692;48.956;9.200;2023-05-07T14:07:43;230.10;;;219.10;;
11269;SDS011;5692;48.956;9.200;2023-05-07T14:10:10;228.23;;;217.30;;
11269;SDS011;5692;48.956;9.200;2023-05-07T14:12:38;242.93;;;231.30;;
11269;SDS011;5692;48.956;9.200;2023-05-07T14:15:04;236.10;;;224.80;;
11269;SDS011;5692;48.956;9.200;2023-05-07T14:17:33;232.75;;;221.65;;
11269;SDS011;5692;48.956;9.200;2023-05-07T14:20:00;232.75;;;221.65;;
11269;SDS011;5692;48.956;9.200;2023-05-07T14:22:26;246.65;;;234.85;;
11269;SDS011;5692;48.956;9.200;2023-05-07T14:24:52;236.68;;;225.35;;
11269;SDS011;5692;48.956;9.200;2023-05-07T14:27:18;249.43;;;237.50;;